Latest Weather Observations for Cape Jaffa

IDS60801

Issued at 11:05 am CST Saturday 20 September 2014 (issued every 30 minutes, with the page automatically refreshed every 10 minutes)

About weather observations | Map of weather stations | Latest weather observations for SA | Other Formats
Station Details ID: 026095 Name: THE LIMESTONE Lat: -36.97 Lon: 139.72 Height: 17.0 m
Data from the previous 72 hours. | See also: Recent months at Cape Jaffa
Date/Time
CST
Temp
°C
App
Temp
°C
Dew
Point
Rel
Hum
%
Delta-T
°C
Wind Press
QNH
hPa
Press
MSL
hPa
Rain
since 9 am
mm
Dir
 
Spd
km/h
Gust
km/h
Spd
kts
Gust
kts
20/11:00am 15.2 11.4 7.7 61 3.7 N 17 20 9 11 1028.2 1028.2 0.0
20/10:30am 15.3 11.9 7.8 61 3.7 ENE 15 20 8 11 1028.5 1028.5 0.0
20/10:00am 14.5 11.4 8.7 68 2.9 NE 15 20 8 11 1028.7 1028.7 0.0
20/09:30am 13.1 9.4 7.8 70 2.6 ENE 17 20 9 11 1028.9 1028.9 0.0
20/09:00am 11.9 7.7 7.6 75 2.1 ENE 19 22 10 12 1029.1 1029.1 0.0
20/08:30am 10.6 6.3 7.1 79 1.7 ENE 19 22 10 12 1029.0 1029.0 0.0
20/08:00am 9.5 5.1 6.4 81 1.4 E 19 24 10 13 1028.8 1028.8 0.0
20/07:30am 8.8 4.1 6.1 83 1.2 E 20 28 11 15 1028.4 1028.4 0.0
20/07:00am 7.6 3.3 5.4 86 1.0 E 17 20 9 11 1027.8 1027.8 0.0
20/06:30am 6.6 2.2 4.8 88 0.8 E 17 22 9 12 1027.4 1027.4 0.0
20/06:00am 6.2 1.4 4.5 89 0.7 E 19 22 10 12 1027.0 1027.0 0.0
20/05:30am 6.1 1.2 4.3 88 0.8 E 19 24 10 13 1026.6 1026.6 0.0
20/05:00am 6.4 1.9 4.4 87 0.9 E 17 20 9 11 1026.4 1026.4 0.0
20/04:30am 6.3 2.1 4.0 85 1.0 E 15 19 8 10 1026.0 1026.0 0.0
20/04:00am 6.3 2.5 3.8 84 1.1 E 13 17 7 9 1025.6 1025.6 0.0
20/03:30am 6.4 2.6 3.7 83 1.1 E 13 15 7 8 1025.6 1025.6 0.0
20/03:00am 6.6 2.8 3.8 82 1.2 E 13 17 7 9 1025.5 1025.5 0.0
20/02:30am 6.0 1.7 3.3 83 1.1 E 15 17 8 9 1025.4 1025.4 0.0
20/02:00am 6.3 2.4 3.5 82 1.2 E 13 15 7 8 1025.4 1025.4 0.0
20/01:30am 6.2 1.9 3.2 81 1.2 E 15 17 8 9 1025.5 1025.5 0.0
20/01:00am 6.7 2.7 3.0 77 1.5 E 13 17 7 9 1025.6 1025.6 0.0
20/12:30am 7.5 3.2 3.4 75 1.7 E 15 19 8 10 1025.6 1025.6 0.0
20/12:00am 7.5 3.6 3.6 76 1.7 E 13 17 7 9 1025.6 1025.6 0.0
 
Date/Time
CST
Temp
°C
App
Temp
°C
Dew
Point
Rel
Hum
%
Delta-T
°C
Wind Press
QNH
hPa
Press
MSL
hPa
Rain
since 9 am
mm
Dir
 
Spd
km/h
Gust
km/h
Spd
kts
Gust
kts
19/11:30pm 7.7 3.5 3.7 76 1.7 E 15 19 8 10 1025.6 1025.6 0.0
19/11:00pm 7.3 4.2 3.7 78 1.5 ESE 9 13 5 7 1025.8 1025.8 0.0
19/10:30pm 7.6 4.5 3.8 77 1.6 ESE 9 13 5 7 1026.1 1026.1 0.0
19/10:00pm 6.9 3.4 3.5 79 1.4 ESE 11 13 6 7 1026.1 1026.1 0.0
19/09:30pm 7.4 3.9 3.6 77 1.6 SE 11 11 6 6 1026.3 1026.3 0.0
19/09:00pm 7.5 4.0 3.7 77 1.6 ESE 11 13 6 7 1026.4 1026.4 0.0
19/08:30pm 7.5 4.1 3.9 78 1.5 SE 11 15 6 8 1026.3 1026.3 0.0
19/08:00pm 7.6 4.2 4.0 78 1.6 SE 11 15 6 8 1026.3 1026.3 0.0
19/07:30pm 8.5 4.8 4.5 76 1.7 SSE 13 19 7 10 1026.2 1026.2 0.0
19/07:00pm 9.9 5.9 4.7 70 2.3 SSE 15 17 8 9 1026.0 1026.0 0.0
19/06:30pm 9.1 5.4 4.7 74 1.9 S 13 15 7 8 1025.8 1025.8 0.0
19/06:00pm 9.4 5.7 4.6 72 2.1 S 13 15 7 8 1025.8 1025.8 0.0
19/05:30pm 11.6 8.5 5.5 66 2.8 S 11 13 6 7 1025.6 1025.6 0.0
19/05:00pm 13.0 9.8 5.2 59 3.6 SSW 11 13 6 7 1025.5 1025.5 0.0
19/04:30pm 13.6 10.9 5.5 58 3.8 SSW 9 13 5 7 1025.4 1025.4 0.0
19/04:00pm 13.7 10.1 4.8 55 4.1 WSW 13 17 7 9 1025.4 1025.4 0.0
19/03:30pm 13.9 10.7 5.0 55 4.1 WSW 11 17 6 9 1025.4 1025.4 0.0
19/03:00pm 14.3 11.0 6.2 58 3.9 WSW 13 20 7 11 1025.4 1025.4 0.0
19/02:30pm 14.5 11.1 6.1 57 4.0 WSW 13 20 7 11 1025.4 1025.4 0.0
19/02:00pm 14.6 10.5 4.6 51 4.6 W 15 20 8 11 1025.5 1025.5 0.0
19/01:30pm 14.7 11.1 5.2 53 4.4 W 13 19 7 10 1025.7 1025.7 0.0
19/01:00pm 14.5 11.2 6.3 58 3.9 WNW 13 17 7 9 1025.8 1025.8 0.0
19/12:30pm 14.9 10.9 4.9 51 4.7 NW 15 20 8 11 1026.1 1026.1 0.0
19/12:00pm 13.9 10.0 5.3 56 4.0 NNW 15 20 8 11 1026.3 1026.3 0.0
19/11:30am 14.0 10.4 5.1 55 4.1 NNW 13 19 7 10 1026.6 1026.6 0.0
19/11:00am 13.5 10.6 4.9 56 4.0 N 9 17 5 9 1026.7 1026.7 0.0
19/10:30am 13.9 10.8 3.7 50 4.6 ENE 9 17 5 9 1026.9 1026.9 0.0
19/10:00am 13.7 10.2 3.5 50 4.6 NE 11 15 6 8 1027.2 1027.2 0.0
19/09:30am 13.4 10.1 4.3 54 4.1 ENE 11 17 6 9 1027.2 1027.2 0.0
19/09:00am 12.8 9.5 6.2 64 3.1 ENE 13 15 7 8 1027.3 1027.3 0.0
19/08:30am 10.9 8.8 6.8 76 1.9 ENE 7 9 4 5 1027.4 1027.4 0.0
19/08:00am 9.3 7.2 6.0 80 1.5 ENE 6 7 3 4 1027.4 1027.4 0.0
19/07:30am 7.0 4.4 4.1 82 1.2 E 7 11 4 6 1027.1 1027.1 0.0
19/07:00am 5.3 2.1 3.0 85 0.9 E 9 11 5 6 1026.9 1026.9 0.0
19/06:30am 4.2 0.5 2.1 86 0.8 ENE 11 11 6 6 1026.7 1026.7 0.0
19/06:00am 4.9 1.2 2.6 85 0.9 E 11 11 6 6 1026.3 1026.3 0.0
19/05:30am 4.9 1.2 2.6 85 0.9 E 11 11 6 6 1026.0 1026.0 0.0
19/05:00am 5.5 1.9 2.7 82 1.1 E 11 11 6 6 1025.8 1025.8 0.0
19/04:30am 5.9 2.6 2.7 80 1.3 E 9 9 5 5 1025.7 1025.7 0.0
19/04:00am 6.3 3.4 2.8 78 1.4 E 7 7 4 4 1025.7 1025.7 0.0
19/03:30am 6.2 2.9 2.5 77 1.5 E 9 9 5 5 1025.7 1025.7 0.0
19/03:00am 6.5 3.6 2.4 75 1.7 E 7 7 4 4 1025.8 1025.8 0.0
19/02:30am 6.9 4.0 2.8 75 1.7 ESE 7 9 4 5 1025.9 1025.9 0.0
19/02:00am 7.0 3.8 3.3 77 1.6 ESE 9 9 5 5 1026.0 1026.0 0.0
19/01:30am 6.8 4.0 3.2 78 1.5 ESE 7 9 4 5 1026.2 1026.2 0.0
19/01:00am 6.8 4.0 3.1 77 1.5 ESE 7 7 4 4 1026.3 1026.3 0.0
19/12:30am 6.7 3.9 3.3 79 1.4 ESE 7 9 4 5 1026.4 1026.4 0.0
19/12:00am 6.1 3.3 3.4 83 1.1 SE 7 7 4 4 1026.5 1026.5 0.0
 
Date/Time
CST
Temp
°C
App
Temp
°C
Dew
Point
Rel
Hum
%
Delta-T
°C
Wind Press
QNH
hPa
Press
MSL
hPa
Rain
since 9 am
mm
Dir
 
Spd
km/h
Gust
km/h
Spd
kts
Gust
kts
18/11:30pm 6.5 3.9 4.0 84 1.1 SE 7 9 4 5 1026.6 1026.6 0.0
18/11:00pm 6.9 3.9 4.0 82 1.2 SE 9 9 5 5 1026.8 1026.8 0.0
18/10:30pm 7.4 4.9 4.5 82 1.3 SE 7 7 4 4 1027.1 1027.1 0.0
18/10:00pm 7.2 4.3 4.7 84 1.1 SE 9 9 5 5 1027.1 1027.1 0.0
18/09:30pm 6.8 3.8 4.3 84 1.1 SE 9 11 5 6 1027.1 1027.1 0.0
18/09:00pm 7.6 4.2 3.8 77 1.6 SSE 11 17 6 9 1026.9 1026.9 0.0
18/08:30pm 9.1 4.9 5.5 78 1.6 SSE 17 20 9 11 1026.7 1026.7 0.0
18/08:00pm 7.4 4.1 4.4 81 1.3 SSE 11 15 6 8 1026.7 1026.7 0.0
18/07:30pm 8.7 4.7 4.9 77 1.7 SSE 15 17 8 9 1026.5 1026.5 0.0
18/07:00pm 9.3 4.5 4.7 73 2.0 S 19 20 10 11 1026.3 1026.3 0.0
18/06:30pm 9.7 4.9 4.7 71 2.2 S 19 20 10 11 1026.0 1026.0 0.0
18/06:00pm 9.9 5.2 5.3 73 2.1 S 19 24 10 13 1025.8 1025.8 0.0
18/05:30pm 11.3 6.6 6.0 70 2.5 S 20 28 11 15 1025.5 1025.5 0.0
18/05:00pm 12.3 7.5 5.5 63 3.2 S 20 26 11 14 1025.3 1025.3 0.0
18/04:30pm 12.8 7.7 5.9 63 3.2 SSW 22 28 12 15 1025.2 1025.2 0.0
18/04:00pm 13.0 7.7 5.2 59 3.6 SSW 22 26 12 14 1025.2 1025.2 0.0
18/03:30pm 13.4 8.1 4.8 56 4.0 SSW 22 28 12 15 1025.2 1025.2 0.0
18/03:00pm 13.7 8.0 5.1 56 4.0 SSW 24 30 13 16 1025.0 1025.0 0.0
18/02:30pm 13.9 8.8 6.0 59 3.7 SSW 22 28 12 15 1025.0 1025.0 0.0
18/02:00pm 14.1 9.4 6.2 59 3.8 SSW 20 26 11 14 1025.2 1025.2 0.0
18/01:30pm 14.2 9.7 6.8 61 3.6 SSW 20 26 11 14 1025.2 1025.2 0.0
18/01:00pm 14.1 9.0 6.2 59 3.8 SSW 22 30 12 16 1025.4 1025.4 0.0
18/12:30pm 14.1 9.4 6.0 58 3.8 SSW 20 28 11 15 1025.6 1025.6 0.0
18/12:00pm 13.8 8.7 5.9 59 3.7 SSW 22 28 12 15 1025.9 1025.9 0.0
18/11:30am 13.7 8.7 4.8 55 4.1 SSW 20 28 11 15 1025.9 1025.9 0.0
18/11:00am 13.8 9.8 6.7 62 3.4 SSW 17 22 9 12 1026.0 1026.0 0.0
18/10:30am 13.5 10.1 7.5 67 2.9 SSW 15 22 8 12 1026.2 1026.2 0.0
18/10:00am 12.8 8.6 5.7 62 3.3 SSW 17 24 9 13 1026.3 1026.3 0.0
18/09:30am 12.4 8.5 5.3 62 3.3 SSW 15 20 8 11 1026.3 1026.3 0.0
18/09:00am 11.2 6.6 6.5 73 2.2 S 20 26 11 14 1026.3 1026.3 0.2
18/08:30am 12.2 9.1 7.3 72 2.4 SSE 13 19 7 10 1026.1 1026.1 0.0
18/08:00am 11.8 9.3 6.7 71 2.4 SE 9 15 5 8 1025.9 1025.9 0.0
18/07:30am 10.2 7.0 6.7 79 1.6 SSE 13 19 7 10 1025.7 1025.7 0.0
18/07:00am 10.2 5.3 6.9 80 1.6 S 22 30 12 16 1025.3 1025.3 0.0
18/06:30am 9.8 6.3 5.4 74 2.0 S 13 17 7 9 1025.0 1025.0 0.0
18/06:00am 9.7 6.3 5.7 76 1.8 S 13 19 7 10 1024.6 1024.6 0.0
18/05:30am 9.5 7.8 5.9 78 1.6 SSW 4 7 2 4 1024.5 1024.5 0.0
18/05:00am 9.8 6.1 6.2 78 1.7 WSW 15 19 8 10 1024.2 1024.2 0.0
18/04:30am 9.9 5.7 5.5 74 2.0 WSW 17 20 9 11 1024.0 1024.0 0.0
18/04:00am 9.6 6.4 5.2 74 2.0 S 11 17 6 9 1023.8 1023.8 0.0
18/03:30am 9.2 6.9 5.8 79 1.5 S 7 13 4 7 1023.7 1023.7 0.0
18/03:00am 9.6 4.8 5.6 76 1.8 SW 20 28 11 15 1023.9 1023.9 0.0
18/02:30am 10.3 5.1 5.5 72 2.2 SSW 22 28 12 15 1023.7 1023.7 0.0
18/02:00am 10.9 5.9 3.5 60 3.3 SW 19 26 10 14 1023.8 1023.8 0.0
18/01:30am 10.7 4.9 4.2 64 2.9 SSW 24 30 13 16 1023.8 1023.8 0.0
18/01:00am 11.0 6.2 4.7 65 2.8 SSW 19 24 10 13 1023.9 1023.9 0.0
18/12:30am 10.8 5.8 3.8 62 3.1 SSW 19 26 10 14 1023.9 1023.9 0.0
18/12:00am 11.2 6.2 3.7 60 3.3 SSW 19 26 10 14 1023.8 1023.8 0.0
 
Date/Time
CST
Temp
°C
App
Temp
°C
Dew
Point
Rel
Hum
%
Delta-T
°C
Wind Press
QNH
hPa
Press
MSL
hPa
Rain
since 9 am
mm
Dir
 
Spd
km/h
Gust
km/h
Spd
kts
Gust
kts
17/11:30pm 10.7 5.4 3.0 59 3.3 SW 20 28 11 15 1023.8 1023.8 0.0
17/11:00pm 11.1 5.6 3.9 61 3.2 SSW 22 32 12 17 1023.8 1023.8 0.0
17/10:30pm 11.1 5.7 2.4 55 3.7 SW 20 35 11 19 1023.8 1023.8 0.0
17/10:00pm 11.1 5.3 4.3 63 3.0 SSW 24 33 13 18 1023.9 1023.9 0.0
17/09:30pm 11.2 4.6 4.4 63 3.0 SSW 28 33 15 18 1023.8 1023.8 0.0
17/09:00pm 11.2 5.1 4.9 65 2.8 SSW 26 33 14 18 1023.6 1023.6 0.0
17/08:30pm 11.3 5.4 4.1 61 3.2 SW 24 33 13 18 1023.6 1023.6 0.0
17/08:00pm 11.4 4.7 3.9 60 3.3 SSW 28 35 15 19 1023.3 1023.3 0.0
17/07:30pm 11.4 5.6 4.2 61 3.2 SSW 24 30 13 16 1023.1 1023.1 0.0
17/07:00pm 11.4 5.6 4.4 62 3.2 SSW 24 32 13 17 1022.7 1022.7 0.0
17/06:30pm 11.5 5.8 4.7 63 3.1 SW 24 33 13 18 1022.6 1022.6 0.0
17/06:00pm 11.4 5.8 5.3 66 2.8 SSW 24 33 13 18 1022.2 1022.2 0.0
17/05:30pm 11.5 5.9 5.6 67 2.7 SW 24 32 13 17 1022.1 1022.1 0.0
17/05:00pm 11.1 6.6 6.8 75 2.0 SSW 20 26 11 14 1021.7 1021.7 0.0
17/04:30pm 11.7 6.4 6.8 72 2.3 SW 24 35 13 19 1021.6 1021.6 0.0
17/04:00pm 11.6 6.8 7.5 76 2.0 SSW 22 28 12 15 1021.1 1021.1 0.0
17/03:30pm 10.9 6.6 8.0 82 1.4 SW 20 33 11 18 1021.2 1021.2 0.0
17/03:00pm 11.0 3.5 8.1 82 1.4 SW 37 48 20 26 1020.8 1020.8 0.0
17/02:30pm 13.8 7.7 6.4 61 3.5 SW 28 37 15 20 1020.6 1020.6 0.0
17/02:00pm 13.5 6.6 6.6 63 3.3 SW 32 43 17 23 1020.6 1020.6 0.0
17/01:30pm 13.4 7.0 5.1 57 3.8 SW 28 39 15 21 1020.6 1020.6 0.0
17/01:00pm 13.8 7.5 3.6 50 4.6 WSW 26 33 14 18 1020.6 1020.6 0.0
17/12:30pm 13.5 6.8 3.8 52 4.4 SW 28 37 15 20 1020.6 1020.6 0.0
17/12:00pm 13.3 6.3 3.9 53 4.2 SW 30 37 16 20 1020.7 1020.7 0.0
17/11:30am 13.6 6.7 4.7 55 4.1 SW 30 41 16 22 1020.5 1020.5 0.0

Other Formats:

Comma delimited format used in spreadsheet applications
http://www.bom.gov.au/fwo/IDS60801/IDS60801.94813.axf

JavaScript Object Notation format (JSON) in row-major order
http://www.bom.gov.au/fwo/IDS60801/IDS60801.94813.json